Time;durP1;ratioP1;P1;durP2;ratioP2;P2;SDS_P1;SDS_P2;PMS_P1;PMS_P2;Temp;Humidity;BMP_temperature;BMP_pressure;BME280_temperature;BME280_humidity;BME280_pressure;Samples;Min_cycle;Max_cycle;Signal;HPM_P1;HPM_P2
2024/01/18 00:01:33;;;;;;;26.67;22.92;;;-1.60;99.90;;;;;;5067482;28;20694;-65
2024/01/18 00:03:59;;;;;;;28.75;23.02;;;-1.60;99.90;;;;;;5068180;28;20509;-65
2024/01/18 00:06:25;;;;;;;29.95;23.27;;;-1.60;99.90;;;;;;5064243;28;21121;-65
2024/01/18 00:08:51;;;;;;;25.05;20.80;;;-1.60;99.90;;;;;;5066943;28;20935;-64
2024/01/18 00:11:17;;;;;;;25.15;20.48;;;-1.60;99.90;;;;;;5068866;28;20435;-65
2024/01/18 00:13:44;;;;;;;24.08;18.85;;;-1.60;99.90;;;;;;5068665;28;20414;-64
2024/01/18 00:16:10;;;;;;;23.90;17.88;;;-1.60;99.90;;;;;;5068643;28;20399;-64
2024/01/18 00:18:35;;;;;;;22.13;16.48;;;-1.60;99.90;;;;;;5068693;28;20392;-64
2024/01/18 00:21:01;;;;;;;20.55;16.70;;;-1.50;99.90;;;;;;5068360;28;20404;-65
2024/01/18 00:23:27;;;;;;;19.58;16.40;;;-1.50;99.90;;;;;;5065339;28;20503;-65
2024/01/18 00:25:53;;;;;;;21.23;16.15;;;-1.50;99.90;;;;;;5050742;28;20434;-64
2024/01/18 00:28:18;;;;;;;21.83;16.63;;;-1.50;99.90;;;;;;5067163;28;20403;-65
2024/01/18 00:30:44;;;;;;;21.83;16.30;;;-1.50;99.90;;;;;;5033676;28;20457;-65
2024/01/18 00:33:10;;;;;;;21.17;16.10;;;-1.50;99.90;;;;;;5068144;28;20408;-65
2024/01/18 00:35:35;;;;;;;22.40;16.83;;;-1.50;99.90;;;;;;5067695;28;20427;-65
2024/01/18 00:38:01;;;;;;;19.48;17.45;;;-1.50;99.90;;;;;;5049462;28;20501;-64
2024/01/18 00:40:27;;;;;;;25.42;16.92;;;-1.50;99.90;;;;;;5067309;28;20749;-65
2024/01/18 00:42:53;;;;;;;20.50;16.70;;;-1.50;99.90;;;;;;5065045;28;20867;-64
2024/01/18 00:45:19;;;;;;;21.45;16.77;;;-1.50;99.90;;;;;;5067275;28;20419;-64
2024/01/18 00:47:44;;;;;;;21.95;17.73;;;-1.50;99.90;;;;;;5066896;28;20479;-64
2024/01/18 00:50:10;;;;;;;27.52;19.10;;;-1.50;99.90;;;;;;5066928;28;20418;-64
2024/01/18 00:52:36;;;;;;;24.80;20.57;;;-1.60;99.90;;;;;;5031033;28;20456;-65
2024/01/18 00:55:01;;;;;;;23.23;19.70;;;-1.60;99.90;;;;;;5049796;28;20408;-64
2024/01/18 00:57:28;;;;;;;30.90;23.40;;;-1.50;99.90;;;;;;5066998;28;20508;-65
2024/01/18 00:59:54;;;;;;;29.45;24.08;;;-1.60;99.90;;;;;;5066298;28;20419;-65
2024/01/18 01:02:20;;;;;;;24.80;19.93;;;-1.60;99.90;;;;;;5067796;28;20465;-64
2024/01/18 01:04:46;;;;;;;21.90;19.47;;;-1.60;99.90;;;;;;5066811;28;20424;-65
2024/01/18 01:07:12;;;;;;;23.57;17.63;;;-1.70;99.90;;;;;;5062619;28;20392;-64
2024/01/18 01:09:38;;;;;;;22.90;18.07;;;-1.70;99.90;;;;;;5067360;28;20849;-65
2024/01/18 01:12:04;;;;;;;20.37;17.53;;;-1.70;99.90;;;;;;5063600;28;20508;-64
2024/01/18 01:14:29;;;;;;;21.40;17.07;;;-1.60;99.90;;;;;;5046009;28;20400;-65
2024/01/18 01:16:55;;;;;;;23.57;17.00;;;-1.70;99.90;;;;;;5066044;28;20741;-64
2024/01/18 01:19:21;;;;;;;23.37;17.07;;;-1.70;99.90;;;;;;5064674;28;20434;-64
2024/01/18 01:21:47;;;;;;;23.13;16.50;;;-1.60;99.90;;;;;;5065676;28;20415;-64
2024/01/18 01:24:13;;;;;;;20.87;16.97;;;-1.70;99.90;;;;;;5065475;28;20420;-64
2024/01/18 01:26:38;;;;;;;24.95;16.80;;;-1.70;99.90;;;;;;5067484;28;20849;-65
2024/01/18 01:29:05;;;;;;;25.10;17.40;;;-1.70;99.90;;;;;;5060134;28;20634;-64
2024/01/18 01:31:31;;;;;;;20.63;16.70;;;-1.70;99.90;;;;;;5064433;28;20769;-64
2024/01/18 01:33:57;;;;;;;21.42;17.80;;;-1.70;99.90;;;;;;5067678;28;20391;-64
2024/01/18 01:36:23;;;;;;;21.98;17.70;;;-1.70;99.90;;;;;;5067198;28;20399;-64
2024/01/18 01:38:48;;;;;;;21.55;17.63;;;-1.80;99.90;;;;;;5049307;28;20420;-65
2024/01/18 01:41:14;;;;;;;23.30;17.70;;;-1.80;99.90;;;;;;5065731;28;20431;-64
2024/01/18 01:43:59;;;;;;;23.58;17.70;;;-1.90;99.90;;;;;;5063471;28;20429;-64
2024/01/18 01:46:26;;;;;;;18.92;16.05;;;-1.90;99.90;;;;;;5063088;28;20404;-64
2024/01/18 01:49:02;;;;;;;21.98;17.35;;;-1.90;99.90;;;;;;5062786;28;20415;-65
2024/01/18 01:51:41;;;;;;;21.08;17.20;;;-1.90;99.90;;;;;;5063969;28;20414;-65
2024/01/18 01:54:08;;;;;;;21.23;17.85;;;-1.90;99.90;;;;;;5061994;28;20506;-64
2024/01/18 01:56:36;;;;;;;25.98;18.75;;;-2.00;99.90;;;;;;5048430;28;20751;-64
2024/01/18 01:59:03;;;;;;;21.35;18.38;;;-2.00;99.90;;;;;;5065474;28;20952;-65
2024/01/18 02:01:29;;;;;;;22.33;17.50;;;-2.00;99.90;;;;;;5068588;28;20395;-64
2024/01/18 02:03:55;;;;;;;22.08;18.35;;;-2.10;99.90;;;;;;5066633;28;20430;-65
2024/01/18 02:06:21;;;;;;;20.92;17.67;;;-2.10;99.90;;;;;;5066758;28;20427;-64
2024/01/18 02:08:46;;;;;;;24.80;18.05;;;-2.10;99.90;;;;;;5066033;28;20404;-64
2024/01/18 02:11:13;;;;;;;20.15;16.88;;;-2.10;99.90;;;;;;5067520;28;20387;-64
2024/01/18 02:13:39;;;;;;;25.20;16.85;;;-2.10;99.90;;;;;;5067414;28;20558;-64
2024/01/18 02:16:05;;;;;;;21.73;15.70;;;-2.10;99.90;;;;;;5067024;28;20498;-64
2024/01/18 02:18:31;;;;;;;21.45;16.67;;;-2.10;99.90;;;;;;5066902;28;20922;-64
2024/01/18 02:20:57;;;;;;;20.15;15.98;;;-2.10;99.90;;;;;;5064428;28;20407;-64
2024/01/18 02:23:27;;;;;;;20.90;15.57;;;-2.10;99.90;;;;;;5065476;28;20963;-65
2024/01/18 02:25:53;;;;;;;20.53;14.87;;;-2.10;99.90;;;;;;5067165;28;20440;-64
2024/01/18 02:28:18;;;;;;;21.70;15.90;;;-2.10;99.90;;;;;;5067049;28;20482;-64
2024/01/18 02:30:44;;;;;;;19.67;15.50;;;-2.20;99.90;;;;;;5065623;28;20481;-64
2024/01/18 02:33:10;;;;;;;18.90;14.88;;;-2.20;99.90;;;;;;5066904;28;20399;-64
2024/01/18 02:35:36;;;;;;;16.90;13.43;;;-2.20;99.90;;;;;;5066471;28;20403;-64
2024/01/18 02:38:02;;;;;;;16.73;12.38;;;-2.20;99.90;;;;;;5062938;28;20431;-64
2024/01/18 02:40:27;;;;;;;16.95;11.35;;;-2.10;99.90;;;;;;5069574;28;20411;-64
2024/01/18 02:42:54;;;;;;;13.52;10.52;;;-2.10;99.90;;;;;;5070640;28;20923;-64
2024/01/18 02:45:21;;;;;;;13.98;9.88;;;-2.00;99.90;;;;;;5051477;28;20430;-64
2024/01/18 02:47:47;;;;;;;13.10;9.20;;;-2.00;99.90;;;;;;5068413;28;20900;-64
2024/01/18 02:50:12;;;;;;;11.73;8.75;;;-1.90;99.90;;;;;;5069930;28;20410;-64
2024/01/18 02:52:39;;;;;;;13.63;8.93;;;-1.90;99.90;;;;;;5069006;28;20430;-64
2024/01/18 02:55:06;;;;;;;14.63;9.20;;;-1.80;99.90;;;;;;5068164;28;20400;-64
2024/01/18 02:57:32;;;;;;;14.93;8.90;;;-1.80;99.90;;;;;;5072645;28;20493;-64
2024/01/18 02:59:57;;;;;;;13.23;9.10;;;-1.80;99.90;;;;;;5075711;28;20491;-63
2024/01/18 03:02:23;;;;;;;15.40;9.13;;;-1.80;99.90;;;;;;5077596;28;20482;-64
2024/01/18 03:04:49;;;;;;;14.67;9.33;;;-1.80;99.90;;;;;;5072204;28;20508;-64
2024/01/18 03:07:14;;;;;;;12.73;8.68;;;-1.80;99.90;;;;;;5075352;28;20818;-64
2024/01/18 03:09:40;;;;;;;14.45;9.43;;;-1.70;99.90;;;;;;5056333;28;20458;-63
2024/01/18 03:12:07;;;;;;;13.93;9.32;;;-1.70;99.90;;;;;;5069192;28;20459;-64
2024/01/18 03:14:33;;;;;;;13.57;9.30;;;-1.80;99.90;;;;;;5070013;28;20480;-64
2024/01/18 03:16:59;;;;;;;12.20;9.05;;;-1.80;99.90;;;;;;5069658;28;20494;-64
2024/01/18 03:19:24;;;;;;;15.20;9.73;;;-1.80;99.90;;;;;;5068088;28;20400;-63
2024/01/18 03:21:50;;;;;;;14.90;9.27;;;-1.80;99.90;;;;;;5068664;28;20403;-63
2024/01/18 03:24:16;;;;;;;13.07;8.73;;;-1.80;99.90;;;;;;5068353;28;20419;-63
2024/01/18 03:26:42;;;;;;;14.33;8.57;;;-1.80;99.90;;;;;;5067943;28;20466;-63
2024/01/18 03:29:11;;;;;;;11.77;8.37;;;-1.80;99.90;;;;;;5067266;28;20396;-63
2024/01/18 03:31:36;;;;;;;12.27;7.47;;;-1.80;99.90;;;;;;5075717;28;20414;-64
2024/01/18 03:34:02;;;;;;;13.37;8.03;;;-1.80;99.90;;;;;;5068484;28;20415;-63
2024/01/18 03:36:28;;;;;;;10.23;7.50;;;-1.80;99.90;;;;;;5066361;28;20441;-63
2024/01/18 03:38:54;;;;;;;10.13;7.50;;;-1.80;99.90;;;;;;5046300;28;21315;-64
2024/01/18 03:41:20;;;;;;;10.85;6.95;;;-1.80;99.90;;;;;;5092226;27;20446;-64
2024/01/18 03:43:46;;;;;;;11.77;7.28;;;-1.80;99.90;;;;;;5068482;28;20423;-64
2024/01/18 03:46:15;;;;;;;9.40;6.80;;;-1.80;99.90;;;;;;5068899;28;20393;-64
2024/01/18 03:48:41;;;;;;;11.57;6.90;;;-1.90;99.90;;;;;;5065008;28;20420;-64
2024/01/18 03:51:07;;;;;;;11.25;6.97;;;-1.90;99.90;;;;;;5067969;28;20411;-64
2024/01/18 03:53:33;;;;;;;9.85;6.90;;;-1.90;99.90;;;;;;5069628;28;20433;-64
2024/01/18 03:55:59;;;;;;;10.13;6.80;;;-1.90;99.90;;;;;;5068791;28;20435;-64
2024/01/18 03:58:25;;;;;;;11.53;6.97;;;-1.90;99.90;;;;;;5069191;28;20472;-64
2024/01/18 04:00:51;;;;;;;13.77;6.50;;;-2.00;99.90;;;;;;5068960;28;20934;-64
2024/01/18 04:03:17;;;;;;;11.48;6.03;;;-2.00;99.90;;;;;;5067165;28;20763;-64
2024/01/18 04:05:42;;;;;;;9.65;5.60;;;-2.00;99.90;;;;;;5051126;28;20437;-64
2024/01/18 04:08:08;;;;;;;8.77;4.90;;;-2.00;99.90;;;;;;5067396;28;20514;-64
2024/01/18 04:10:35;;;;;;;9.77;5.07;;;-2.00;99.90;;;;;;5070834;28;20416;-64
2024/01/18 04:13:01;;;;;;;7.43;4.88;;;-2.00;99.90;;;;;;5043162;28;20396;-64
2024/01/18 04:15:26;;;;;;;8.13;4.20;;;-2.00;99.90;;;;;;5074508;28;20418;-64
2024/01/18 04:17:52;;;;;;;9.63;4.00;;;-2.00;99.90;;;;;;5074402;28;20391;-64
2024/01/18 04:20:23;;;;;;;6.03;4.00;;;-2.00;99.90;;;;;;5073493;28;20416;-63
2024/01/18 04:22:48;;;;;;;7.85;4.03;;;-2.00;99.90;;;;;;5075810;28;20419;-64
2024/01/18 04:25:14;;;;;;;8.30;4.35;;;-2.00;99.90;;;;;;5072535;28;20446;-63
2024/01/18 04:27:40;;;;;;;9.05;4.30;;;-2.00;99.90;;;;;;5067789;28;20532;-63
2024/01/18 04:30:08;;;;;;;7.72;4.70;;;-2.00;99.90;;;;;;5068890;28;20734;-64
2024/01/18 04:32:33;;;;;;;11.43;4.53;;;-2.00;99.90;;;;;;5072774;28;20417;-63
2024/01/18 04:34:59;;;;;;;8.80;5.27;;;-2.00;99.90;;;;;;5059404;28;20939;-64
2024/01/18 04:37:25;;;;;;;9.13;6.10;;;-2.00;99.90;;;;;;5073922;28;20493;-64
2024/01/18 04:39:51;;;;;;;8.10;6.10;;;-2.10;99.90;;;;;;5064328;28;20423;-63
2024/01/18 04:42:16;;;;;;;9.95;6.15;;;-2.10;99.90;;;;;;5067741;28;20403;-63
2024/01/18 04:44:42;;;;;;;11.23;6.70;;;-2.10;99.90;;;;;;5066669;28;20912;-63
2024/01/18 04:47:08;;;;;;;12.93;7.20;;;-2.20;99.90;;;;;;5070876;28;20391;-63
2024/01/18 04:49:34;;;;;;;11.05;6.63;;;-2.20;99.90;;;;;;5076564;28;20415;-64
2024/01/18 04:52:00;;;;;;;10.02;5.93;;;-2.30;99.90;;;;;;5081373;28;20481;-64
2024/01/18 04:54:25;;;;;;;9.15;5.82;;;-2.30;99.90;;;;;;5070365;28;20421;-64
2024/01/18 04:56:51;;;;;;;10.77;5.80;;;-2.30;99.90;;;;;;5073540;28;20398;-64
2024/01/18 04:59:18;;;;;;;9.88;5.38;;;-2.30;99.90;;;;;;5077601;28;20406;-64
2024/01/18 05:01:43;;;;;;;9.95;4.97;;;-2.20;99.90;;;;;;5073058;28;20408;-64
2024/01/18 05:04:09;;;;;;;7.07;4.03;;;-2.20;99.90;;;;;;5077177;28;20417;-64
2024/01/18 05:06:35;;;;;;;9.52;3.67;;;-2.20;99.90;;;;;;5072280;28;20981;-64
2024/01/18 05:09:02;;;;;;;7.55;3.00;;;-2.10;99.90;;;;;;5049952;28;20412;-64
2024/01/18 05:11:28;;;;;;;6.18;2.83;;;-2.00;99.90;;;;;;5068768;28;20494;-64
2024/01/18 05:13:53;;;;;;;6.07;2.70;;;-1.90;99.90;;;;;;5069424;28;20474;-64
2024/01/18 05:16:19;;;;;;;7.03;2.92;;;-1.80;99.90;;;;;;5067974;28;20408;-64
2024/01/18 05:18:46;;;;;;;8.00;3.03;;;-1.80;99.90;;;;;;5074368;28;20423;-64
2024/01/18 05:21:11;;;;;;;7.30;2.72;;;-1.70;99.90;;;;;;5069441;28;20419;-64
2024/01/18 05:23:37;;;;;;;8.15;2.90;;;-1.60;99.90;;;;;;5072770;28;20430;-64
2024/01/18 05:26:04;;;;;;;5.38;2.47;;;-1.60;99.90;;;;;;5073179;28;20426;-64
2024/01/18 05:28:30;;;;;;;7.22;2.67;;;-1.60;99.90;;;;;;5074667;28;20464;-64
2024/01/18 05:30:58;;;;;;;6.97;3.43;;;-1.60;99.90;;;;;;5074568;28;20538;-64
2024/01/18 05:33:24;;;;;;;10.25;4.22;;;-1.60;99.90;;;;;;5063605;28;20484;-64
2024/01/18 05:35:50;;;;;;;9.80;3.40;;;-1.60;99.90;;;;;;5068472;28;20463;-63
2024/01/18 05:38:16;;;;;;;9.35;3.75;;;-1.60;99.90;;;;;;5068188;28;20508;-64
2024/01/18 05:40:42;;;;;;;8.90;3.97;;;-1.60;99.90;;;;;;5064601;28;20876;-64
2024/01/18 05:43:08;;;;;;;8.20;3.22;;;-1.60;99.90;;;;;;5066988;28;20455;-64
2024/01/18 05:45:34;;;;;;;5.93;2.90;;;-1.60;99.90;;;;;;5068540;28;20508;-64
2024/01/18 05:48:01;;;;;;;6.57;2.77;;;-1.70;99.90;;;;;;5073970;28;20407;-64
2024/01/18 05:50:27;;;;;;;7.60;3.30;;;-1.70;99.90;;;;;;5072678;28;20416;-64
2024/01/18 05:52:53;;;;;;;8.40;3.10;;;-1.80;99.90;;;;;;5074166;28;20945;-64
2024/01/18 05:55:18;;;;;;;10.00;3.28;;;-1.80;99.90;;;;;;5069339;28;20419;-64
2024/01/18 05:57:44;;;;;;;7.43;3.13;;;-1.90;99.90;;;;;;5063336;28;20423;-64
2024/01/18 06:00:10;;;;;;;7.10;3.23;;;-1.90;99.90;;;;;;5075167;28;20409;-64
2024/01/18 06:02:36;;;;;;;6.78;3.00;;;-1.90;99.90;;;;;;5065176;28;20454;-64
2024/01/18 06:05:02;;;;;;;8.13;3.38;;;-1.90;99.90;;;;;;5070981;28;20451;-64
2024/01/18 06:07:28;;;;;;;8.95;3.50;;;-1.90;99.90;;;;;;5065860;28;20934;-64
2024/01/18 06:09:53;;;;;;;9.35;4.95;;;-1.90;99.90;;;;;;5078017;28;20828;-64
2024/01/18 06:12:20;;;;;;;10.77;7.47;;;-1.90;99.90;;;;;;5075368;28;20626;-64
2024/01/18 06:14:45;;;;;;;8.35;4.20;;;-2.00;99.90;;;;;;5075380;28;20414;-64
2024/01/18 06:17:11;;;;;;;8.23;4.60;;;-2.00;99.90;;;;;;5069236;28;20476;-64
2024/01/18 06:19:37;;;;;;;8.60;6.03;;;-2.00;99.90;;;;;;5073795;28;20537;-64
2024/01/18 06:22:03;;;;;;;9.18;6.57;;;-2.00;99.90;;;;;;5069505;28;20476;-64
2024/01/18 06:24:30;;;;;;;10.35;5.03;;;-2.00;99.90;;;;;;5073012;28;20419;-65
2024/01/18 06:26:55;;;;;;;5.72;3.33;;;-2.00;99.90;;;;;;5074698;28;20456;-64
2024/01/18 06:29:26;;;;;;;8.57;3.30;;;-2.00;99.90;;;;;;5070764;28;20415;-64
2024/01/18 06:31:53;;;;;;;5.93;3.40;;;-2.00;99.90;;;;;;5073436;28;20418;-64
2024/01/18 06:34:18;;;;;;;9.10;3.97;;;-2.00;99.90;;;;;;5071915;28;20818;-65
2024/01/18 06:36:45;;;;;;;11.53;6.60;;;-2.00;99.90;;;;;;5052132;28;20415;-64
2024/01/18 06:39:10;;;;;;;12.30;9.02;;;-2.00;99.90;;;;;;5052251;28;20419;-65
2024/01/18 06:41:36;;;;;;;9.85;5.97;;;-2.00;99.90;;;;;;5066945;28;20458;-64
2024/01/18 06:44:02;;;;;;;6.85;3.60;;;-2.00;99.90;;;;;;5069420;28;20419;-65
2024/01/18 06:46:29;;;;;;;10.30;5.88;;;-2.00;99.90;;;;;;5052140;28;20733;-64
2024/01/18 06:48:57;;;;;;;11.38;6.07;;;-2.00;99.90;;;;;;5071674;28;20411;-65
2024/01/18 06:51:23;;;;;;;10.95;7.40;;;-2.00;99.90;;;;;;5053081;28;20414;-65
2024/01/18 06:53:50;;;;;;;9.38;5.57;;;-2.00;99.90;;;;;;5076404;28;20416;-65
2024/01/18 06:56:16;;;;;;;7.30;4.80;;;-2.00;99.90;;;;;;5070782;28;20427;-65
2024/01/18 06:58:43;;;;;;;7.88;3.83;;;-2.00;99.90;;;;;;5075338;28;20914;-65
2024/01/18 07:01:10;;;;;;;8.65;4.10;;;-1.90;99.90;;;;;;5070287;28;20797;-65
2024/01/18 07:03:36;;;;;;;8.25;3.78;;;-1.90;99.90;;;;;;5070191;28;20485;-65
2024/01/18 07:06:05;;;;;;;6.30;3.42;;;-1.90;99.90;;;;;;5068009;28;20400;-65
2024/01/18 07:08:31;;;;;;;7.25;4.20;;;-1.90;99.90;;;;;;5069919;28;20400;-65
2024/01/18 07:10:57;;;;;;;9.00;3.92;;;-2.00;99.90;;;;;;5067798;28;20406;-65
2024/01/18 07:13:26;;;;;;;7.25;4.00;;;-2.00;99.90;;;;;;5068502;28;20490;-64
2024/01/18 07:15:52;;;;;;;9.20;5.03;;;-2.00;99.90;;;;;;5069037;28;20404;-64
2024/01/18 07:18:18;;;;;;;8.05;4.40;;;-2.00;99.90;;;;;;5070376;28;20959;-64
2024/01/18 07:20:44;;;;;;;7.88;4.10;;;-2.00;99.90;;;;;;5070106;28;20410;-65
2024/01/18 07:23:09;;;;;;;6.45;3.78;;;-2.00;99.90;;;;;;5068885;28;20478;-65
2024/01/18 07:25:35;;;;;;;7.93;3.90;;;-2.00;99.90;;;;;;5067651;28;20483;-64
2024/01/18 07:28:01;;;;;;;4.95;3.25;;;-2.00;99.90;;;;;;5067017;28;20395;-64
2024/01/18 07:30:27;;;;;;;7.25;3.40;;;-2.00;99.90;;;;;;5069299;28;20807;-65
2024/01/18 07:32:52;;;;;;;8.10;2.72;;;-2.00;99.90;;;;;;5070838;28;20541;-65
2024/01/18 07:35:18;;;;;;;7.17;2.63;;;-2.00;99.90;;;;;;5067431;28;20414;-65
2024/01/18 07:37:45;;;;;;;6.20;2.85;;;-2.00;99.90;;;;;;5069006;28;20419;-65
2024/01/18 07:40:11;;;;;;;6.77;3.13;;;-2.00;99.90;;;;;;5069442;28;20479;-64
2024/01/18 07:42:37;;;;;;;13.77;6.50;;;-2.10;99.90;;;;;;5070627;28;20395;-65
2024/01/18 07:45:03;;;;;;;20.27;12.43;;;-2.10;99.90;;;;;;5066859;28;21016;-64
2024/01/18 07:47:28;;;;;;;13.52;8.93;;;-2.10;99.90;;;;;;5065851;28;20411;-64
2024/01/18 07:49:54;;;;;;;13.25;7.88;;;-2.10;99.90;;;;;;5069008;28;20405;-65
2024/01/18 07:52:20;;;;;;;14.53;6.90;;;-2.00;99.90;;;;;;5067050;28;20398;-65
2024/01/18 07:54:49;;;;;;;8.32;4.15;;;-2.10;99.90;;;;;;5068173;28;20441;-65
2024/01/18 07:57:14;;;;;;;10.73;5.13;;;-2.10;99.90;;;;;;5069992;28;20473;-65
2024/01/18 07:59:40;;;;;;;11.33;7.70;;;-2.10;99.90;;;;;;5067406;28;20452;-64
2024/01/18 08:02:06;;;;;;;10.90;7.77;;;-2.10;99.90;;;;;;5048575;28;20990;-64
2024/01/18 08:04:32;;;;;;;14.97;11.07;;;-2.10;99.90;;;;;;5065999;28;20437;-65
2024/01/18 08:06:57;;;;;;;10.77;8.60;;;-2.00;99.90;;;;;;5068777;28;20414;-65
2024/01/18 08:09:23;;;;;;;18.80;14.65;;;-1.90;99.90;;;;;;5069598;28;21734;-64
2024/01/18 08:11:49;;;;;;;11.55;8.73;;;-1.80;99.90;;;;;;5054108;28;21167;-65
2024/01/18 08:14:15;;;;;;;9.95;6.10;;;-1.70;99.90;;;;;;5057160;28;20795;-65
2024/01/18 08:16:40;;;;;;;8.93;5.80;;;-1.60;99.90;;;;;;5069761;28;20430;-65
2024/01/18 08:19:07;;;;;;;8.07;5.72;;;-1.50;99.90;;;;;;5055178;28;20410;-65
2024/01/18 08:21:33;;;;;;;8.73;5.10;;;-1.30;99.90;;;;;;5051516;28;20433;-64
2024/01/18 08:23:58;;;;;;;8.00;4.70;;;-1.20;99.90;;;;;;5070556;28;20499;-65
2024/01/18 08:26:24;;;;;;;6.77;4.23;;;-1.10;99.90;;;;;;5072333;28;21085;-65
2024/01/18 08:28:50;;;;;;;7.35;4.75;;;-1.00;99.90;;;;;;5067498;28;20755;-65
2024/01/18 08:31:16;;;;;;;7.95;5.80;;;-1.00;99.90;;;;;;5067484;28;21827;-65
2024/01/18 08:33:41;;;;;;;13.63;8.63;;;-0.90;99.90;;;;;;5068603;28;20416;-65
2024/01/18 08:36:08;;;;;;;52.08;32.10;;;-0.80;99.90;;;;;;5036021;28;20410;-65
2024/01/18 08:38:34;;;;;;;33.80;24.38;;;-0.80;99.90;;;;;;5054102;28;20437;-65
2024/01/18 08:41:00;;;;;;;14.98;11.10;;;-0.80;99.90;;;;;;5071726;28;20879;-65
2024/01/18 08:43:27;;;;;;;8.02;4.20;;;-0.90;99.90;;;;;;5067445;28;20744;-65
2024/01/18 08:45:54;;;;;;;6.88;3.45;;;-0.90;99.90;;;;;;5070578;28;20940;-65
2024/01/18 08:48:20;;;;;;;5.88;2.97;;;-1.00;99.90;;;;;;5087071;27;20401;-65
2024/01/18 08:50:46;;;;;;;6.00;3.00;;;-1.00;99.90;;;;;;5071164;28;20421;-65
2024/01/18 08:53:12;;;;;;;5.20;3.23;;;-1.00;99.90;;;;;;5052633;28;20475;-65
2024/01/18 08:55:38;;;;;;;5.33;3.30;;;-1.00;99.90;;;;;;5053350;28;20940;-64
2024/01/18 08:58:06;;;;;;;6.18;3.28;;;-0.90;99.90;;;;;;5077548;28;20439;-65
2024/01/18 09:00:32;;;;;;;5.75;3.47;;;-0.60;99.90;;;;;;5079709;28;20971;-65
2024/01/18 09:02:58;;;;;;;5.75;3.40;;;0.20;99.90;;;;;;5068147;28;20487;-65
2024/01/18 09:05:24;;;;;;;8.27;3.50;;;1.20;99.90;;;;;;5067959;28;20920;-65
2024/01/18 09:07:49;;;;;;;4.88;2.92;;;2.20;99.90;;;;;;5069374;28;20395;-65
2024/01/18 09:10:15;;;;;;;5.90;2.83;;;3.20;99.90;;;;;;5068071;28;20407;-65
2024/01/18 09:12:41;;;;;;;4.95;3.35;;;4.20;99.90;;;;;;5069458;28;20461;-65
2024/01/18 09:15:07;;;;;;;5.53;2.83;;;5.10;99.90;;;;;;5068110;28;20905;-65
2024/01/18 09:17:33;;;;;;;4.35;2.28;;;5.90;99.90;;;;;;5069274;28;20402;-65
2024/01/18 09:19:59;;;;;;;6.05;2.65;;;6.70;99.90;;;;;;5067918;28;20804;-65
2024/01/18 09:22:25;;;;;;;4.70;2.70;;;7.20;99.90;;;;;;5067773;28;20615;-65
2024/01/18 09:24:50;;;;;;;4.97;2.40;;;7.40;99.90;;;;;;5069439;28;20697;-64
2024/01/18 09:27:16;;;;;;;7.45;4.82;;;7.60;99.90;;;;;;5067632;28;20483;-65
2024/01/18 09:29:42;;;;;;;7.13;5.10;;;8.20;99.90;;;;;;5068221;28;20379;-64
2024/01/18 09:32:08;;;;;;;6.32;3.53;;;8.70;99.90;;;;;;5068834;28;20957;-64
2024/01/18 09:34:34;;;;;;;5.82;3.70;;;9.20;99.90;;;;;;5067703;28;20892;-64
2024/01/18 09:37:00;;;;;;;4.23;2.20;;;9.50;99.90;;;;;;5050909;28;20418;-64
2024/01/18 09:39:26;;;;;;;5.60;1.90;;;9.80;99.90;;;;;;5068975;28;20785;-64
2024/01/18 09:41:53;;;;;;;5.43;2.63;;;9.80;99.90;;;;;;5068968;28;20400;-64
2024/01/18 09:44:26;;;;;;;5.57;3.25;;;9.50;99.90;;;;;;5068054;28;20430;-64
2024/01/18 09:46:53;;;;;;;4.57;2.42;;;9.20;99.90;;;;;;5050893;28;20970;-64
2024/01/18 09:49:19;;;;;;;5.07;2.00;;;8.70;99.90;;;;;;5067361;28;20510;-64
2024/01/18 09:51:46;;;;;;;4.30;1.67;;;8.60;99.90;;;;;;5050997;28;20795;-64
2024/01/18 09:54:12;;;;;;;4.65;2.03;;;8.40;99.90;;;;;;5068972;28;20438;-64
2024/01/18 09:56:43;;;;;;;3.97;1.60;;;7.80;99.90;;;;;;5067447;28;20395;-64
2024/01/18 09:59:18;;;;;;;4.07;2.08;;;6.80;99.90;;;;;;5068887;28;20399;-64
2024/01/18 10:01:44;;;;;;;5.18;2.25;;;5.80;99.90;;;;;;5050721;28;20502;-64
2024/01/18 10:04:12;;;;;;;5.93;2.10;;;5.30;99.90;;;;;;5067509;28;20924;-64
2024/01/18 10:06:38;;;;;;;5.53;2.10;;;5.20;99.90;;;;;;5068915;28;20423;-64
2024/01/18 10:09:10;;;;;;;6.43;2.17;;;5.10;99.90;;;;;;5069167;28;20851;-64
2024/01/18 10:11:40;;;;;;;5.55;2.63;;;4.90;99.90;;;;;;5068396;28;20896;-64
2024/01/18 10:14:07;;;;;;;7.05;2.30;;;5.00;99.90;;;;;;5068774;28;20469;-64
2024/01/18 10:16:36;;;;;;;3.90;1.83;;;5.00;99.90;;;;;;5068807;28;20403;-64
2024/01/18 10:19:04;;;;;;;6.93;2.20;;;4.60;99.90;;;;;;5062643;28;20453;-64
2024/01/18 10:21:33;;;;;;;4.45;2.28;;;4.20;99.90;;;;;;5067350;28;20407;-64
2024/01/18 10:24:00;;;;;;;4.78;2.10;;;3.90;99.90;;;;;;5069516;28;20405;-64
2024/01/18 10:26:33;;;;;;;;;;;3.50;99.90;;;;;;5069874;28;20105;-64
2024/01/18 10:28:59;;;;;;;;;;;3.30;99.90;;;;;;5069052;28;19968;-64
2024/01/18 10:31:25;;;;;;;;;;;3.10;99.90;;;;;;5068999;28;20435;-65
2024/01/18 10:33:51;;;;;;;;;;;2.80;99.90;;;;;;5070131;28;19956;-65
2024/01/18 10:36:17;;;;;;;;;;;2.50;99.90;;;;;;5070605;28;19963;-64
2024/01/18 10:38:43;;;;;;;;;;;2.10;99.90;;;;;;5069849;28;19968;-64
2024/01/18 10:41:09;;;;;;;;;;;2.00;99.90;;;;;;5069991;28;20392;-65
2024/01/18 10:43:35;;;;;;;;;;;2.20;99.90;;;;;;5069827;28;19920;-64
2024/01/18 10:46:01;;;;;;;;;;;2.40;99.90;;;;;;5052056;28;19921;-64
2024/01/18 10:48:29;;;;;;;;;;;2.50;99.90;;;;;;5069945;28;20285;-65
2024/01/18 10:50:57;;;;;;;;;;;2.70;99.90;;;;;;5070118;28;20355;-64
2024/01/18 10:53:24;;;;;;;;;;;2.40;99.90;;;;;;5069683;28;19920;-65
2024/01/18 10:55:50;;;;;;;;;;;2.20;99.90;;;;;;5052617;28;19962;-65
2024/01/18 10:58:16;;;;;;;;;;;2.00;99.90;;;;;;5069460;28;19916;-65
2024/01/18 11:00:42;;;;;;;;;;;2.20;99.90;;;;;;5070252;28;19931;-65
2024/01/18 11:03:08;;;;;;;;;;;2.40;99.90;;;;;;5071931;28;19920;-64
2024/01/18 11:05:34;;;;;;;;;;;2.20;99.90;;;;;;5072128;28;20003;-65
2024/01/18 11:08:01;;;;;;;;;;;1.90;99.90;;;;;;5073364;28;20066;-65
2024/01/18 11:10:26;;;;;;;;;;;1.80;99.90;;;;;;5073328;28;19920;-65
2024/01/18 11:12:52;;;;;;;;;;;1.80;99.90;;;;;;5073366;28;19924;-65
2024/01/18 11:15:18;;;;;;;;;;;1.80;99.90;;;;;;5073351;28;20444;-65
2024/01/18 11:17:45;;;;;;;;;;;1.70;99.90;;;;;;5072879;28;19969;-65
2024/01/18 11:20:11;;;;;;;;;;;1.60;99.90;;;;;;5072203;28;19916;-65
2024/01/18 11:22:39;;;;;;;;;;;1.60;99.90;;;;;;5073008;28;19947;-65
2024/01/18 11:25:05;;;;;;;;;;;1.70;99.90;;;;;;5073305;28;20041;-65
2024/01/18 11:27:40;;;;;;;;;;;1.80;99.90;;;;;;5072597;28;19955;-65
2024/01/18 11:30:07;;;;;;;;;;;2.00;99.90;;;;;;5071707;28;19916;-65
2024/01/18 11:32:33;;;;;;;;;;;2.20;99.90;;;;;;5071632;28;19928;-65
2024/01/18 11:35:09;;;;;;;;;;;2.20;99.90;;;;;;5071499;28;19916;-65
2024/01/18 11:37:35;;;;;;;;;;;2.20;99.90;;;;;;5072982;28;19924;-65
2024/01/18 11:40:01;;;;;;;;;;;2.20;99.90;;;;;;5072757;28;20386;-65
2024/01/18 11:42:28;;;;;;;;;;;2.10;99.90;;;;;;5072821;28;19917;-65
2024/01/18 11:44:59;;;;;;;;;;;2.20;99.90;;;;;;5071385;28;19970;-65
2024/01/18 11:47:27;;;;;;;;;;;2.00;99.90;;;;;;5072532;28;20448;-65
2024/01/18 11:49:53;;;;;;;;;;;2.20;99.90;;;;;;5054359;28;19970;-65
2024/01/18 11:52:21;;;;;;;;;;;2.20;99.90;;;;;;5071336;28;19924;-65
2024/01/18 11:54:50;;;;;;;;;;;2.20;99.90;;;;;;5072326;28;19939;-65
2024/01/18 11:57:17;;;;;;;;;;;2.20;99.90;;;;;;5070941;28;19917;-65
2024/01/18 11:59:46;;;;;;;;;;;2.10;99.90;;;;;;5071125;28;20288;-66
2024/01/18 12:02:12;;;;;;;;;;;2.10;99.90;;;;;;5054462;28;19987;-65
2024/01/18 12:04:37;;;;;;;;;;;2.20;99.90;;;;;;5072352;28;19963;-65
2024/01/18 12:07:04;;;;;;;;;;;2.30;99.90;;;;;;5072326;28;20392;-65
2024/01/18 12:09:30;;;;;;;;;;;2.30;99.90;;;;;;5072096;28;19962;-65
2024/01/18 12:12:00;;;;;;;;;;;2.30;99.90;;;;;;5069461;28;20310;-65
2024/01/18 12:14:26;;;;;;;;;;;2.40;99.90;;;;;;5053232;28;19920;-66
2024/01/18 12:16:52;;;;;;;;;;;2.40;99.90;;;;;;5072001;28;20496;-65
2024/01/18 12:19:33;;;;;;;;;;;2.50;99.90;;;;;;5072094;28;19939;-65
2024/01/18 12:22:02;;;;;;;;;;;2.40;99.90;;;;;;5063485;28;19985;-66
2024/01/18 12:24:28;;;;;;;;;;;2.40;99.90;;;;;;5053850;28;20006;-65
2024/01/18 12:26:54;;;;;;;;;;;2.40;99.90;;;;;;5071584;28;20508;-65
2024/01/18 12:29:20;;;;;;;;;;;2.40;99.90;;;;;;5053627;28;19969;-65
2024/01/18 12:31:46;;;;;;;;;;;2.20;99.90;;;;;;5070475;28;19916;-65
2024/01/18 12:34:12;;;;;;;;;;;2.20;99.90;;;;;;5070348;28;20446;-65
2024/01/18 12:36:39;;;;;;;;;;;2.20;99.90;;;;;;5069725;28;19916;-65
2024/01/18 12:39:04;;;;;;;;;;;2.30;99.90;;;;;;5070054;28;20133;-65
2024/01/18 12:41:30;;;;;;;;;;;2.40;99.90;;;;;;5071722;28;20020;-66
2024/01/18 12:44:06;;;;;;;;;;;2.50;99.90;;;;;;5061611;28;19928;-65
2024/01/18 12:46:32;;;;;;;;;;;2.60;99.90;;;;;;5058936;28;19971;-66
2024/01/18 12:48:57;;;;;;;;;;;2.80;99.90;;;;;;5070417;28;19923;-65
2024/01/18 12:51:23;;;;;;;;;;;2.90;99.90;;;;;;5071525;28;20312;-66
2024/01/18 12:53:48;;;;;;;;;;;3.00;99.90;;;;;;5071423;28;19920;-65
2024/01/18 12:56:17;;;;;;;;;;;3.00;99.90;;;;;;5071133;28;19917;-65